TJSJ/SJU METAR and TAF weather

Enter ICAO airport designator
Station Type Date Time Source
TJSJ METAR 2020/04/08 20:56 UTC NOAA

TJSJ 082056Z 06010KT 10SM SCT018 SCT050 OVC090 25/23 A2992 RMK AO2 RAE17 SLP131 VCSH NW P0000 60000 T02500233 56013


Station Type Date Time Source
TJSJ Decoded METAR 2020/04/08 20:56 UTC NOAA

San Juan, Luis Munoz Marin International Airport, PR, United States (TJSJ) 18-27N 066-00W
Apr 08, 2020 - 04:56 PM EDT / 2020.04.08 2056 UTC
Wind: from the ENE (060 degrees) at 12 MPH (10 KT):0
Visibility: 10 mile(s):0
Sky conditions: overcast
Precipitation last hour: A trace
Temperature: 77.0 F (25.0 C)
Dew Point: 73.9 F (23.3 C)
Relative Humidity: 90%
Pressure (altimeter): 29.92 in. Hg (1013 hPa)
Pressure tendency: 0.04 inches (1.3 hPa) lower than three hours ago
ob: TJSJ 082056Z 06010KT 10SM SCT018 SCT050 OVC090 25/23 A2992 RMK AO2 RAE17 SLP131 VCSH NW P0000 60000 T02500233 56013
cycle: 21

Station Type Date Time Source
TJSJ TAF 2020/04/08 18:40 UTC NOAA

TAF TJSJ 081738Z 0818/0918 06012KT P6SM VCSH SCT030 BKN050
FM082200 08009KT P6SM VCSH SCT030 BKN050
FM091400 06015KT P6SM FEW035 SCT050

Example: see airport list